Time;durP1;ratioP1;P1;durP2;ratioP2;P2;SDS_P1;SDS_P2;PMS_P1;PMS_P2;Temp;Humidity;BMP_temperature;BMP_pressure;BME280_temperature;BME280_humidity;BME280_pressure;Samples;Min_cycle;Max_cycle;Signal;HPM_P1;HPM_P2
2021/12/19 00:01:10;;;;;;;;;44.00;31.50;;;;;-146.39;100.00;62182.44;6309854;20;2864827;-52
2021/12/19 00:09:12;;;;;;;;;49.50;40.00;;;;;-146.39;100.00;62182.44;6285095;20;2874248;-50
2021/12/19 00:11:42;;;;;;;;;46.50;35.50;;;;;-146.39;100.00;62182.44;6283607;20;2853369;-52
2021/12/19 00:14:11;;;;;;;;;39.67;31.33;;;;;-146.39;100.00;62182.44;6281267;20;2864825;-50
2021/12/19 00:16:41;;;;;;;;;45.00;38.00;;;;;-146.39;100.00;62182.44;6313199;20;2863935;-50
2021/12/19 00:19:10;;;;;;;;;36.00;32.50;;;;;-146.39;100.00;62182.44;6315666;20;2854416;-50
2021/12/19 00:21:40;;;;;;;;;37.50;32.00;;;;;-146.39;100.00;62182.44;6281668;20;2861791;-53
2021/12/19 00:24:09;;;;;;;;;44.00;31.00;;;;;-146.39;100.00;62182.44;6283649;20;2875358;-52
2021/12/19 00:26:39;;;;;;;;;33.00;25.00;;;;;-146.39;100.00;62182.44;6280686;20;2857607;-50
2021/12/19 00:29:09;;;;;;;;;35.00;32.50;;;;;-146.39;100.00;62182.44;6281708;20;2847159;-51
2021/12/19 00:31:38;;;;;;;;;40.00;32.00;;;;;-146.39;100.00;62182.44;6284712;20;2870080;-52
2021/12/19 00:34:06;;;;;;;;;37.50;31.50;;;;;-146.39;100.00;62182.44;6284269;20;2500418;-51
2021/12/19 00:36:34;;;;;;;;;37.00;30.00;;;;;-146.39;100.00;62182.44;6285660;20;2500240;-50
2021/12/19 00:39:04;;;;;;;;;45.50;32.50;;;;;-146.39;100.00;62182.44;6287792;20;2878407;-52
2021/12/19 00:41:33;;;;;;;;;43.00;36.00;;;;;-146.39;100.00;62182.44;6285122;20;2859047;-50
2021/12/19 00:44:08;;;;;;;;;36.50;33.00;;;;;-146.39;100.00;62182.44;6284962;20;2500346;-48
2021/12/19 00:46:48;;;;;;;;;33.00;28.00;;;;;-146.39;100.00;62182.44;6285365;20;2841997;-50
2021/12/19 00:49:22;;;;;;;;;40.00;35.50;;;;;-146.39;100.00;62182.44;6289006;20;2847359;-49
2021/12/19 00:51:51;;;;;;;;;41.50;32.00;;;;;-146.39;100.00;62182.44;6289172;20;2870633;-53
2021/12/19 00:54:21;;;;;;;;;50.00;35.33;;;;;-146.39;100.00;62182.44;6288003;20;2870141;-52
2021/12/19 00:56:49;;;;;;;;;38.00;30.50;;;;;-146.39;100.00;62182.44;6315488;20;2483579;-52
2021/12/19 00:59:19;;;;;;;;;45.00;38.33;;;;;-146.39;100.00;62182.44;6286537;20;2875495;-48
2021/12/19 01:01:48;;;;;;;;;39.50;34.50;;;;;-146.39;100.00;62182.44;6320354;20;2856526;-48
2021/12/19 01:04:20;;;;;;;;;36.00;31.00;;;;;-146.39;100.00;62182.44;6287684;20;2732916;-54
2021/12/19 01:06:49;;;;;;;;;37.00;30.50;;;;;-146.39;100.00;62182.44;6314213;20;2500282;-52
2021/12/19 01:09:19;;;;;;;;;44.33;30.00;;;;;-146.39;100.00;62182.44;6287466;20;2871151;-48
2021/12/19 01:11:49;;;;;;;;;45.33;34.67;;;;;-146.39;100.00;62182.44;6317804;20;2871213;-48
2021/12/19 01:14:18;;;;;;;;;38.50;33.00;;;;;-146.39;100.00;62182.44;6319163;20;2860700;-53
2021/12/19 01:16:48;;;;;;;;;46.00;37.33;;;;;-146.39;100.00;62182.44;6287365;20;2872159;-50
2021/12/19 01:19:17;;;;;;;;;40.50;35.50;;;;;-146.39;100.00;62182.44;6318976;20;2851366;-49
2021/12/19 01:21:46;;;;;;;;;35.00;29.00;;;;;-146.39;100.00;62182.44;6286858;20;2843986;-50
2021/12/19 01:24:15;;;;;;;;;40.00;33.50;;;;;-146.39;100.00;62182.44;6288061;20;2864817;-52
2021/12/19 01:26:43;;;;;;;;;31.50;31.50;;;;;-146.39;100.00;62182.44;6283858;20;2500324;-49
2021/12/19 01:29:14;;;;;;;;;47.33;34.00;;;;;-146.39;100.00;62182.44;6288174;20;2872169;-50
2021/12/19 01:31:43;;;;;;;;;51.33;34.33;;;;;-146.39;100.00;62182.44;6319410;20;3631583;-51
2021/12/19 01:34:13;;;;;;;;;44.67;39.33;;;;;-146.39;100.00;62182.44;6317857;20;2877379;-52
2021/12/19 01:36:44;;;;;;;;;49.33;39.33;;;;;-146.39;100.00;62182.44;6317726;20;2869112;-53
2021/12/19 01:39:16;;;;;;;;;43.00;37.50;;;;;-146.39;100.00;62182.44;6314442;20;2850383;-53
2021/12/19 01:41:53;;;;;;;;;41.00;34.67;;;;;-146.39;100.00;62182.44;6288305;20;2850243;-51
2021/12/19 01:44:24;;;;;;;;;50.00;40.67;;;;;-146.39;100.00;62182.44;6318214;20;2871133;-51
2021/12/19 01:46:54;;;;;;;;;43.00;37.50;;;;;-146.39;100.00;62182.44;6314758;20;2865889;-51
2021/12/19 01:49:23;;;;;;;;;42.67;35.67;;;;;-146.39;100.00;62182.44;6284396;20;2873179;-52
2021/12/19 01:51:53;;;;;;;;;50.33;40.67;;;;;-146.39;100.00;62182.44;6314977;20;2873297;-49
2021/12/19 01:54:22;;;;;;;;;59.67;39.33;;;;;-146.39;100.00;62182.44;6317063;20;3652373;-47
2021/12/19 01:56:52;;;;;;;;;35.50;34.50;;;;;-146.39;100.00;62182.44;6316476;20;2851347;-53
2021/12/19 01:59:21;;;;;;;;;46.33;37.67;;;;;-146.39;100.00;62182.44;6284500;20;2870100;-51
2021/12/19 02:01:55;;;;;;;;;44.50;36.50;;;;;-146.39;100.00;62182.44;6313932;20;2851726;-49
2021/12/19 02:04:30;;;;;;;;;51.33;37.67;;;;;-146.39;100.00;62182.44;6287988;20;3634587;-51
2021/12/19 02:07:01;;;;;;;;;54.00;40.00;;;;;-146.39;100.00;62182.44;6315427;20;2885811;-51
2021/12/19 02:09:31;;;;;;;;;56.67;44.00;;;;;-146.39;100.00;62182.44;6318505;20;2853428;-54
2021/12/19 02:12:00;;;;;;;;;52.00;40.33;;;;;-146.39;100.00;62182.44;6317220;20;3631515;-52
2021/12/19 02:14:30;;;;;;;;;51.00;39.67;;;;;-146.39;100.00;62182.44;6318786;20;3621173;-54
2021/12/19 02:17:00;;;;;;;;;62.00;43.67;;;;;-146.39;100.00;62182.44;6316995;20;3627567;-49
2021/12/19 02:19:33;;;;;;;;;47.50;43.00;;;;;-146.39;100.00;62182.44;6316959;20;2856506;-48
2021/12/19 02:22:02;;;;;;;;;54.00;43.00;;;;;-146.39;100.00;62182.44;6287689;20;2852318;-50
2021/12/19 02:24:34;;;;;;;;;51.50;41.50;;;;;-146.39;100.00;62182.44;6285440;20;2857556;-52
2021/12/19 02:27:04;;;;;;;;;42.67;37.33;;;;;-146.39;100.00;62182.44;6284195;20;3615871;-48
2021/12/19 02:29:33;;;;;;;;;52.33;40.67;;;;;-146.39;100.00;62182.44;6316254;20;2864819;-52
2021/12/19 02:32:06;;;;;;;;;53.33;40.67;;;;;-146.39;100.00;62182.44;6317613;20;3629402;-50
2021/12/19 02:34:41;;;;;;;;;43.00;38.00;;;;;-146.39;100.00;62182.44;6316535;20;2863908;-49
2021/12/19 02:37:33;;;;;;;;;52.67;35.67;;;;;-146.39;100.00;62182.44;6316065;20;2888988;-49
2021/12/19 02:48:13;;;;;;;;;45.67;36.67;;;;;-146.39;100.00;62182.44;6284349;20;3626420;-51
2021/12/19 02:50:51;;;;;;;;;47.67;38.00;;;;;-146.39;100.00;62182.44;6315542;20;3621029;-54
2021/12/19 02:53:37;;;;;;;;;51.50;41.00;;;;;-146.39;100.00;62182.44;6315782;20;2855929;-52
2021/12/19 02:56:11;;;;;;;;;50.33;42.00;;;;;-146.39;100.00;62182.44;6281498;20;2871167;-50
2021/12/19 02:58:44;;;;;;;;;43.67;33.00;;;;;-146.39;100.00;62182.44;6317754;20;3620060;-52
2021/12/19 03:01:17;;;;;;;;;53.00;43.00;;;;;-146.39;100.00;62182.44;6313771;20;3605460;-50
2021/12/19 03:03:47;;;;;;;;;51.00;41.33;;;;;-146.39;100.00;62182.44;6313553;20;3622087;-49
2021/12/19 03:06:18;;;;;;;;;59.00;45.67;;;;;-146.39;100.00;62182.44;6314708;20;2872253;-50
2021/12/19 03:08:49;;;;;;;;;52.00;42.00;;;;;-146.39;100.00;62182.44;6313249;20;2871222;-52
2021/12/19 03:11:52;;;;;;;;;49.33;41.33;;;;;-146.39;100.00;62182.44;6283681;20;2868113;-51
2021/12/19 03:19:46;;;;;;;;;64.00;47.00;;;;;-146.39;100.00;62182.44;6314397;20;2877455;-52
2021/12/19 03:22:16;;;;;;;;;62.00;44.33;;;;;-146.39;100.00;62182.44;6314756;20;3613201;-50
2021/12/19 03:24:46;;;;;;;;;56.67;44.00;;;;;-146.39;100.00;62182.44;6315892;20;3617915;-51
2021/12/19 03:27:14;;;;;;;;;52.00;45.00;;;;;-146.39;100.00;62182.44;6314246;20;2845042;-49
2021/12/19 03:29:44;;;;;;;;;72.67;53.33;;;;;-146.39;100.00;62182.44;6284025;20;3628330;-51
2021/12/19 03:32:13;;;;;;;;;65.00;49.33;;;;;-146.39;100.00;62182.44;6314099;20;2879490;-52
2021/12/19 03:34:42;;;;;;;;;51.50;43.50;;;;;-146.39;100.00;62182.44;6314837;20;2861701;-51
2021/12/19 03:37:11;;;;;;;;;45.50;42.00;;;;;-146.39;100.00;62182.44;6283646;20;2831742;-51
2021/12/19 03:40:21;;;;;;;;;59.50;47.50;;;;;-146.39;100.00;62182.44;6283826;20;2842002;-52
2021/12/19 03:42:46;;;;;;;;;59.33;43.00;;;;;-146.39;100.00;62182.44;6283203;20;2866915;-48
2021/12/19 03:45:22;;;;;;;;;54.00;40.00;;;;;-146.39;100.00;62182.44;6315497;20;3642907;-48
2021/12/19 03:47:51;;;;;;;;;56.50;43.50;;;;;-146.39;100.00;62182.44;6312550;20;2849242;-52
2021/12/19 03:50:23;;;;;;;;;58.50;44.00;;;;;-146.39;100.00;62182.44;6283585;20;2856580;-50
2021/12/19 03:52:54;;;;;;;;;49.50;42.50;;;;;-146.39;100.00;62182.44;6283721;20;2856987;-48
2021/12/19 03:55:25;;;;;;;;;52.67;41.33;;;;;-146.39;100.00;62182.44;6284463;20;2872137;-50
2021/12/19 03:57:57;;;;;;;;;53.00;39.00;;;;;-146.39;100.00;62182.44;6315667;20;2876392;-51
2021/12/19 04:00:28;;;;;;;;;55.50;43.00;;;;;-146.39;100.00;62182.44;6312912;20;2854442;-48
2021/12/19 04:03:08;;;;;;;;;54.50;43.00;;;;;-146.39;100.00;62182.44;6286561;20;2866899;-50
2021/12/19 04:05:38;;;;;;;;;46.00;40.00;;;;;-146.39;100.00;62182.44;6288133;20;2860658;-51
2021/12/19 04:08:06;;;;;;;;;53.50;43.00;;;;;-146.39;100.00;62182.44;6282187;20;2480464;-48
2021/12/19 04:10:36;;;;;;;;;43.00;39.67;;;;;-146.39;100.00;62182.44;6285679;20;2875481;-50
2021/12/19 04:13:07;;;;;;;;;49.00;41.00;;;;;-146.39;100.00;62182.44;6319157;20;3610636;-48
2021/12/19 04:15:36;;;;;;;;;58.00;45.00;;;;;-146.39;100.00;62182.44;6319926;20;2873232;-48
2021/12/19 04:18:05;;;;;;;;;59.00;46.00;;;;;-146.39;100.00;62182.44;6316809;20;2862955;-50
2021/12/19 04:20:35;;;;;;;;;48.33;40.33;;;;;-146.39;100.00;62182.44;6287867;20;2878440;-54
2021/12/19 04:23:05;;;;;;;;;55.33;40.00;;;;;-146.39;100.00;62182.44;6320062;20;3637711;-53
2021/12/19 04:25:34;;;;;;;;;41.00;33.00;;;;;-146.39;100.00;62182.44;6320733;20;2856652;-53
2021/12/19 04:28:04;;;;;;;;;35.50;35.50;;;;;-146.39;100.00;62182.44;6288993;20;2858700;-50
2021/12/19 04:30:32;;;;;;;;;36.00;31.00;;;;;-146.39;100.00;62182.44;6284419;20;2734629;-51
2021/12/19 04:33:06;;;;;;;;;43.33;35.00;;;;;-146.39;100.00;62182.44;6318724;20;2876436;-53
2021/12/19 04:35:42;;;;;;;;;42.33;34.00;;;;;-146.39;100.00;62182.44;6317850;20;2859792;-50
2021/12/19 05:02:55;;;;;;;;;54.67;40.67;;;;;-146.39;100.00;62182.44;6288789;20;2881532;-49
2021/12/19 05:16:20;;;;;;;;;44.33;35.00;;;;;-146.39;100.00;62182.44;6288034;20;3634587;-54
2021/12/19 05:18:52;;;;;;;;;58.00;41.00;;;;;-146.39;100.00;62182.44;6318395;20;2872205;-53
2021/12/19 05:21:26;;;;;;;;;45.33;39.00;;;;;-146.39;100.00;62182.44;6316982;20;2850454;-51
2021/12/19 05:26:30;;;;;;;;;54.50;44.50;;;;;-146.39;100.00;62182.44;6287161;20;2850724;-54
2021/12/19 05:28:58;;;;;;;;;41.50;37.00;;;;;-146.39;100.00;62182.44;6285104;20;2859609;-53
2021/12/19 05:31:28;;;;;;;;;47.67;37.33;;;;;-146.39;100.00;62182.44;6285553;20;3632527;-51
2021/12/19 05:33:57;;;;;;;;;53.50;43.00;;;;;-146.39;100.00;62182.44;6318432;20;2851302;-55
2021/12/19 05:47:34;;;;;;;;;52.00;41.33;;;;;-146.39;100.00;62182.44;6318339;20;2863831;-47
2021/12/19 05:50:06;;;;;;;;;52.00;40.67;;;;;-146.39;100.00;62182.44;6315533;20;3619057;-54
2021/12/19 05:52:36;;;;;;;;;47.00;39.00;;;;;-146.39;100.00;62182.44;6318712;20;2752339;-50
2021/12/19 05:55:07;;;;;;;;;43.67;35.33;;;;;-146.39;100.00;62182.44;6282747;20;2860795;-49
2021/12/19 05:57:37;;;;;;;;;58.33;43.00;;;;;-146.39;100.00;62182.44;6319118;20;2868987;-52
2021/12/19 06:00:12;;;;;;;;;39.50;37.50;;;;;-146.39;100.00;62182.44;6316911;20;2860722;-53
2021/12/19 06:02:43;;;;;;;;;47.67;42.00;;;;;-146.39;100.00;62182.44;6286394;20;2861738;-52
2021/12/19 06:05:14;;;;;;;;;56.33;40.33;;;;;-146.39;100.00;62182.44;6316339;20;3640136;-51
2021/12/19 06:07:43;;;;;;;;;48.00;39.00;;;;;-146.39;100.00;62182.44;6319661;20;2869021;-51
2021/12/19 06:10:13;;;;;;;;;58.33;40.33;;;;;-146.39;100.00;62182.44;6282590;20;3614835;-51
2021/12/19 06:12:43;;;;;;;;;50.00;43.00;;;;;-146.39;100.00;62182.44;6317654;20;2853400;-49
2021/12/19 06:15:12;;;;;;;;;65.00;49.50;;;;;-146.39;100.00;62182.44;6285374;20;2865906;-49
2021/12/19 06:17:46;;;;;;;;;53.50;44.50;;;;;-146.39;100.00;62182.44;6283554;20;2851388;-54
2021/12/19 06:20:16;;;;;;;;;49.33;36.00;;;;;-146.39;100.00;62182.44;6283025;20;2876373;-52
2021/12/19 06:22:44;;;;;;;;;51.00;42.50;;;;;-146.39;100.00;62182.44;6317868;20;2842998;-52
2021/12/19 06:25:12;;;;;;;;;62.50;48.00;;;;;-146.39;100.00;62182.44;6283894;20;2491921;-55
2021/12/19 06:27:41;;;;;;;;;54.50;45.00;;;;;-146.39;100.00;62182.44;6286149;20;2844109;-50
2021/12/19 06:30:11;;;;;;;;;51.50;43.50;;;;;-146.39;100.00;62182.44;6281255;20;2492974;-51
2021/12/19 06:32:40;;;;;;;;;53.00;40.00;;;;;-146.39;100.00;62182.44;6287434;20;3622109;-49
2021/12/19 06:35:18;;;;;;;;;48.50;41.00;;;;;-146.39;100.00;62182.44;6317466;20;2840871;-51
2021/12/19 06:37:49;;;;;;;;;69.67;52.00;;;;;-146.39;100.00;62182.44;6284895;20;2882533;-52
2021/12/19 06:40:21;;;;;;;;;62.50;47.50;;;;;-146.39;100.00;62182.44;6316397;20;2841384;-51
2021/12/19 06:42:51;;;;;;;;;24.00;15.00;;;;;-146.39;100.00;62182.44;6286097;20;3569159;-53
2021/12/19 06:45:21;;;;;;;;;54.00;45.00;;;;;-146.39;100.00;62182.44;6316879;20;2842946;-49
2021/12/19 06:47:51;;;;;;;;;55.33;44.00;;;;;-146.39;100.00;62182.44;6283673;20;2870273;-52
2021/12/19 06:50:24;;;;;;;;;53.00;44.00;;;;;-146.39;100.00;62182.44;6316259;20;2859641;-52
2021/12/19 06:52:53;;;;;;;;;66.50;48.00;;;;;-146.39;100.00;62182.44;6285856;20;2875241;-51
2021/12/19 06:55:22;;;;;;;;;55.00;44.00;;;;;-146.39;100.00;62182.44;6282928;20;2499255;-49
2021/12/19 06:57:51;;;;;;;;;60.50;48.00;;;;;-146.39;100.00;62182.44;6284847;20;2863903;-48
2021/12/19 07:00:24;;;;;;;;;61.00;45.33;;;;;-146.39;100.00;62182.44;6282889;20;2869014;-54
2021/12/19 07:02:55;;;;;;;;;56.00;46.00;;;;;-146.39;100.00;62182.44;6316304;20;2854391;-51
2021/12/19 07:05:24;;;;;;;;;61.00;47.00;;;;;-146.39;100.00;62182.44;6285110;20;2865903;-52
2021/12/19 07:07:54;;;;;;;;;66.33;52.33;;;;;-146.39;100.00;62182.44;6285927;20;2858630;-50
2021/12/19 07:10:24;;;;;;;;;78.00;59.00;;;;;-146.39;100.00;62182.44;6313421;20;3641942;-51
2021/12/19 07:12:53;;;;;;;;;71.00;54.33;;;;;-146.39;100.00;62182.44;6316717;20;2879440;-52
2021/12/19 07:15:24;;;;;;;;;63.00;47.50;;;;;-146.39;100.00;62182.44;6316403;20;2869056;-54
2021/12/19 07:17:55;;;;;;;;;59.33;49.00;;;;;-146.39;100.00;62182.44;6286126;20;2862769;-49
2021/12/19 07:20:24;;;;;;;;;54.50;43.50;;;;;-146.39;100.00;62182.44;6314629;20;2844041;-49
2021/12/19 07:22:54;;;;;;;;;64.00;45.67;;;;;-146.39;100.00;62182.44;6285616;20;2879491;-52
2021/12/19 07:25:23;;;;;;;;;57.00;45.00;;;;;-146.39;100.00;62182.44;6315225;20;2849229;-51
2021/12/19 07:27:53;;;;;;;;;61.67;43.67;;;;;-146.39;100.00;62182.44;6284143;20;2865939;-52
2021/12/19 07:30:25;;;;;;;;;48.00;42.50;;;;;-146.39;100.00;62182.44;6314148;20;2844083;-54
2021/12/19 07:32:55;;;;;;;;;62.50;52.00;;;;;-146.39;100.00;62182.44;6285842;20;2858645;-53
2021/12/19 07:35:30;;;;;;;;;66.67;49.00;;;;;-146.39;100.00;62182.44;6284126;20;3628484;-51
2021/12/19 07:37:59;;;;;;;;;73.33;53.33;;;;;-146.39;100.00;62182.44;6316011;20;3633538;-50
2021/12/19 07:40:35;;;;;;;;;59.00;47.00;;;;;-146.39;100.00;62182.44;6311748;20;2492970;-51
2021/12/19 07:43:08;;;;;;;;;64.33;44.67;;;;;-146.39;100.00;62182.44;6283234;20;3636680;-52
2021/12/19 07:45:37;;;;;;;;;63.00;48.50;;;;;-146.39;100.00;62182.44;6316983;20;2871071;-52
2021/12/19 07:48:07;;;;;;;;;59.00;43.67;;;;;-146.39;100.00;62182.44;6283596;20;2871109;-51
2021/12/19 07:50:37;;;;;;;;;53.00;44.00;;;;;-146.39;100.00;62182.44;6310348;20;2861776;-48
2021/12/19 07:53:08;;;;;;;;;48.67;41.67;;;;;-146.39;100.00;62182.44;6284650;20;2874275;-51
2021/12/19 07:55:38;;;;;;;;;58.33;47.00;;;;;-146.39;100.00;62182.44;6314145;20;2858586;-48
2021/12/19 07:58:07;;;;;;;;;55.00;44.50;;;;;-146.39;100.00;62182.44;6316570;20;2851305;-53
2021/12/19 08:00:35;;;;;;;;;49.00;45.00;;;;;-146.39;100.00;62182.44;6282741;20;2492960;-51
2021/12/19 08:03:04;;;;;;;;;65.67;50.33;;;;;-146.39;100.00;62182.44;6282628;20;3630555;-50
2021/12/19 08:05:33;;;;;;;;;43.50;32.50;;;;;-146.39;100.00;62182.44;6314850;20;2865909;-48
2021/12/19 08:08:05;;;;;;;;;39.33;36.00;;;;;-146.39;100.00;62182.44;6284819;20;2860786;-53
2021/12/19 08:13:06;;;;;;;;;41.50;31.50;;;;;-146.39;100.00;62182.44;6282922;20;2856654;-50
2021/12/19 08:15:38;;;;;;;;;50.67;37.33;;;;;-146.39;100.00;62182.44;6283657;20;3631490;-53
2021/12/19 08:18:07;;;;;;;;;44.67;37.00;;;;;-146.39;100.00;62182.44;6314341;20;3616904;-49
2021/12/19 08:20:36;;;;;;;;;37.50;32.00;;;;;-146.39;100.00;62182.44;6312394;20;2853416;-49
2021/12/19 08:23:04;;;;;;;;;33.00;28.00;;;;;-146.39;100.00;62182.44;6280396;20;2500271;-52
2021/12/19 08:25:33;;;;;;;;;35.50;28.00;;;;;-146.39;100.00;62182.44;6283425;20;2849270;-52
2021/12/19 08:28:02;;;;;;;;;27.50;27.50;;;;;-146.39;100.00;62182.44;6284574;20;2851342;-51
2021/12/19 08:30:31;;;;;;;;;29.50;24.00;;;;;-146.39;100.00;62182.44;6281097;20;2852482;-52
2021/12/19 08:32:59;;;;;;;;;17.33;15.00;;;;;-146.39;100.00;62182.44;6278126;20;3548194;-52
2021/12/19 08:35:27;;;;;;;;;24.00;20.00;;;;;-146.39;100.00;62182.44;6310887;20;2500255;-48
2021/12/19 08:37:55;;;;;;;;;23.00;19.00;;;;;-146.39;100.00;62182.44;6282374;20;2496101;-54
2021/12/19 08:40:24;;;;;;;;;19.00;19.00;;;;;-146.39;100.00;62182.44;6281556;20;2827443;-51
2021/12/19 08:42:53;;;;;;;;;24.33;22.67;;;;;-146.39;100.00;62182.44;6280904;20;3571086;-50
2021/12/19 08:45:22;;;;;;;;;19.50;16.00;;;;;-146.39;100.00;62182.44;6282947;20;2825822;-48
2021/12/19 08:47:51;;;;;;;;;29.50;21.50;;;;;-146.39;100.00;62182.44;6280013;20;2500243;-53
2021/12/19 08:50:19;;;;;;;;;24.00;23.00;;;;;-146.39;100.00;62182.44;6283307;20;2500274;-53
2021/12/19 08:52:47;;;;;;;;;19.00;17.00;;;;;-146.39;100.00;62182.44;6285849;20;2828366;-48
2021/12/19 08:55:15;;;;;;;;;24.00;21.33;;;;;-146.39;100.00;62182.44;6289102;20;3562869;-50
2021/12/19 08:57:44;;;;;;;;;22.33;19.67;;;;;-146.39;100.00;62182.44;6287079;20;3565869;-53
2021/12/19 09:00:14;;;;;;;;;26.00;21.00;;;;;-146.39;100.00;62182.44;6319088;20;2848198;-55
2021/12/19 09:02:45;;;;;;;;;21.00;17.50;;;;;-146.39;100.00;62182.44;6285973;20;2500375;-51
2021/12/19 09:05:14;;;;;;;;;24.00;22.50;;;;;-146.39;100.00;62182.44;6285497;20;2496108;-44
2021/12/19 09:07:42;;;;;;;;;21.50;21.00;;;;;-146.39;100.00;62182.44;6287792;20;2492542;-43
2021/12/19 09:10:11;;;;;;;;;20.00;18.00;;;;;-146.39;100.00;62182.44;6285267;20;2496130;-43
2021/12/19 09:12:39;;;;;;;;;17.67;17.67;;;;;-146.39;100.00;62182.44;6285216;20;3555421;-43
2021/12/19 09:15:08;;;;;;;;;24.50;19.00;;;;;-146.39;100.00;62182.44;6319902;20;2837783;-43
2021/12/19 09:17:36;;;;;;;;;20.00;17.00;;;;;-146.39;100.00;62182.44;6287289;20;2479425;-44
2021/12/19 09:20:08;;;;;;;;;27.00;21.00;;;;;-146.39;100.00;62182.44;6285237;20;2500320;-44
2021/12/19 09:22:37;;;;;;;;;19.67;17.00;;;;;-146.39;100.00;62182.44;6288827;20;3565860;-42
2021/12/19 09:25:20;;;;;;;;;18.33;14.67;;;;;-146.39;100.00;62182.44;6287055;20;3545014;-43
2021/12/19 09:27:49;;;;;;;;;17.67;16.67;;;;;-146.39;100.00;62182.44;6286612;20;3556458;-43
2021/12/19 09:30:18;;;;;;;;;22.33;18.00;;;;;-146.39;100.00;62182.44;6286723;20;3558558;-46
2021/12/19 09:32:47;;;;;;;;;14.00;13.00;;;;;-146.39;100.00;62182.44;6288623;20;2784620;-46
2021/12/19 09:35:16;;;;;;;;;19.00;17.50;;;;;-146.39;100.00;62182.44;6291640;20;2831507;-44
2021/12/19 09:37:44;;;;;;;;;21.00;14.00;;;;;-146.39;100.00;62182.44;6285976;20;3563797;-45
2021/12/19 09:40:21;;;;;;;;;20.80;17.40;;;;;-146.39;100.00;62182.44;6307032;20;2827493;-43
2021/12/19 09:43:00;;;;;;;;;62.00;47.00;;;;;-146.39;100.00;62182.44;6284433;20;2871079;-48
2021/12/19 09:45:32;;;;;;;;;25.50;23.00;;;;;-146.39;100.00;62182.44;6286366;20;2830960;-44
2021/12/19 09:48:00;;;;;;;;;24.50;20.00;;;;;-146.39;100.00;62182.44;6285052;20;2500271;-44
2021/12/19 09:50:31;;;;;;;;;40.33;30.67;;;;;-146.39;100.00;62182.44;6284574;20;3604376;-44
2021/12/19 09:52:59;;;;;;;;;16.00;16.00;;;;;-146.39;100.00;62182.44;6314391;20;2491934;-43
2021/12/19 09:55:29;;;;;;;;;20.00;17.00;;;;;-146.39;100.00;62182.44;6288632;20;2842023;-44
2021/12/19 09:57:57;;;;;;;;;20.00;15.50;;;;;-146.39;100.00;62182.44;6288734;20;2828382;-42
2021/12/19 10:00:26;;;;;;;;;18.33;16.00;;;;;-146.39;100.00;62182.44;6283841;20;3553361;-44
2021/12/19 10:02:54;;;;;;;;;21.00;16.00;;;;;-146.39;100.00;62182.44;6314245;20;2500293;-43
2021/12/19 10:05:28;;;;;;;;;20.00;20.00;;;;;-146.39;100.00;62182.44;6290415;20;2825254;-41
2021/12/19 10:08:03;;;;;;;;;18.00;16.00;;;;;-146.39;100.00;62182.44;6289137;20;2835770;-43
2021/12/19 10:10:42;;;;;;;;;18.67;17.67;;;;;-146.39;100.00;62182.44;6285821;20;3533565;-42
2021/12/19 10:13:12;;;;;;;;;21.33;19.00;;;;;-146.39;100.00;62182.44;6317283;20;3557513;-43
2021/12/19 10:15:43;;;;;;;;;21.50;19.00;;;;;-146.39;100.00;62182.44;6319142;20;2817188;-42
2021/12/19 10:18:17;;;;;;;;;18.33;15.00;;;;;-146.39;100.00;62182.44;6287969;20;3547122;-42
2021/12/19 10:20:53;;;;;;;;;20.33;13.67;;;;;-146.39;100.00;62182.44;6283854;20;3542935;-42
2021/12/19 10:23:29;;;;;;;;;18.00;15.00;;;;;-146.39;100.00;62182.44;6320667;20;2827352;-43
2021/12/19 10:26:06;;;;;;;;;17.33;11.67;;;;;-146.39;100.00;62182.44;6286906;20;3538875;-43
2021/12/19 10:33:11;;;;;;;;;21.50;21.50;;;;;-146.39;100.00;62182.44;6283724;20;2829607;-43
2021/12/19 10:35:47;;;;;;;;;20.00;16.00;;;;;-146.39;100.00;62182.44;6281107;20;2832705;-42
2021/12/19 10:38:26;;;;;;;;;19.00;15.50;;;;;-146.39;100.00;62182.44;6315636;20;2500278;-45
2021/12/19 10:41:15;;;;;;;;;16.67;14.00;;;;;-146.39;100.00;62182.44;6283334;20;3533576;-43
2021/12/19 10:45:29;;;;;;;;;18.00;17.00;;;;;-146.39;100.00;62182.44;6318377;20;2826438;-44
2021/12/19 10:46:57;;;;;;;;;21.00;14.50;;;;;-146.39;100.00;62182.44;6283887;20;2491912;-43
2021/12/19 10:49:32;;;;;;;;;33.67;25.33;;;;;-146.39;100.00;62182.44;6282509;20;2859789;-43
2021/12/19 10:52:04;;;;;;;;;24.50;22.00;;;;;-146.39;100.00;62182.44;6312815;20;2837837;-43
2021/12/19 10:54:33;;;;;;;;;14.50;12.50;;;;;-146.39;100.00;62182.44;6284351;20;2497154;-43
2021/12/19 10:57:12;;;;;;;;;18.50;17.50;;;;;-146.39;100.00;62182.44;6282308;20;2500378;-43
2021/12/19 10:59:45;;;;;;;;;21.00;21.00;;;;;-146.39;100.00;62182.44;6283997;20;2838775;-44
2021/12/19 11:02:14;;;;;;;;;20.50;20.00;;;;;-146.39;100.00;62182.44;6283765;20;2500311;-44
2021/12/19 11:04:43;;;;;;;;;37.67;29.00;;;;;-146.39;100.00;62182.44;6283985;20;2857753;-44
2021/12/19 11:07:22;;;;;;;;;30.50;26.50;;;;;-146.39;100.00;62182.44;6316398;20;2860726;-44
2021/12/19 11:09:52;;;;;;;;;36.67;27.33;;;;;-146.39;100.00;62182.44;6282637;20;3610698;-45
2021/12/19 11:12:21;;;;;;;;;26.00;20.50;;;;;-146.39;100.00;62182.44;6312298;20;2832673;-44
2021/12/19 11:14:52;;;;;;;;;40.33;35.00;;;;;-146.39;100.00;62182.44;6281955;20;2864934;-42
2021/12/19 11:17:26;;;;;;;;;30.00;25.00;;;;;-146.39;100.00;62182.44;6314948;20;2838808;-44
2021/12/19 11:19:59;;;;;;;;;28.00;25.50;;;;;-146.39;100.00;62182.44;6279919;20;2496098;-43
2021/12/19 11:22:28;;;;;;;;;25.50;23.00;;;;;-146.39;100.00;62182.44;6283950;20;2827736;-42
2021/12/19 11:25:00;;;;;;;;;25.00;23.00;;;;;-146.39;100.00;62182.44;6282180;20;2491956;-42
2021/12/19 11:27:32;;;;;;;;;18.00;18.00;;;;;-146.39;100.00;62182.44;6287280;20;2814848;-43
2021/12/19 11:30:03;;;;;;;;;16.33;13.00;;;;;-146.39;100.00;62182.44;6283483;20;2810842;-42
2021/12/19 11:33:02;;;;;;;;;17.67;17.67;;;;;-146.39;100.00;62182.44;6312653;20;3565595;-42
2021/12/19 11:35:37;;;;;;;;;24.33;16.00;;;;;-146.39;100.00;62182.44;6284307;20;3573130;-41
2021/12/19 11:38:11;;;;;;;;;16.33;14.33;;;;;-146.39;100.00;62182.44;6311321;20;3535681;-44
2021/12/19 11:40:44;;;;;;;;;22.67;17.00;;;;;-146.39;100.00;62182.44;6311480;20;3581101;-46
2021/12/19 11:43:14;;;;;;;;;21.00;17.50;;;;;-146.39;100.00;62182.44;6279523;20;2500312;-43
2021/12/19 11:45:57;;;;;;;;;19.00;15.00;;;;;-146.39;100.00;62182.44;6285686;20;3542979;-44
2021/12/19 11:48:31;;;;;;;;;17.50;17.00;;;;;-146.39;100.00;62182.44;6318274;20;2839847;-43
2021/12/19 11:51:08;;;;;;;;;12.67;12.67;;;;;-146.39;100.00;62182.44;6283335;20;3534603;-43
2021/12/19 11:53:41;;;;;;;;;14.80;8.80;;;;;-146.39;100.00;62182.44;6339337;20;2764962;-43
2021/12/19 11:56:17;;;;;;;;;21.50;19.50;;;;;-146.39;100.00;62182.44;6280767;20;2500256;-43
2021/12/19 11:58:55;;;;;;;;;22.00;18.00;;;;;-146.39;100.00;62182.44;6284529;20;2832535;-43
2021/12/19 12:01:35;;;;;;;;;19.50;14.00;;;;;-146.39;100.00;62182.44;6283751;20;2823449;-44
2021/12/19 12:04:18;;;;;;;;;27.00;24.00;;;;;-146.39;100.00;62182.44;6282117;20;2498351;-42
2021/12/19 12:06:58;;;;;;;;;25.50;21.00;;;;;-146.39;100.00;62182.44;6278201;20;2829439;-46
2021/12/19 12:09:40;;;;;;;;;20.00;20.00;;;;;-146.39;100.00;62182.44;6285008;20;2825278;-44
2021/12/19 12:12:10;;;;;;;;;27.00;18.00;;;;;-146.39;100.00;62182.44;6283074;20;2483587;-43
2021/12/19 12:14:56;;;;;;;;;28.00;23.50;;;;;-146.39;100.00;62182.44;6281853;20;2500254;-43